Time;durP1;ratioP1;P1;durP2;ratioP2;P2;SDS_P1;SDS_P2;PMS_P1;PMS_P2;Temp;Humidity;BMP_temperature;BMP_pressure;BME280_temperature;BME280_humidity;BME280_pressure;Samples;Min_cycle;Max_cycle;Signal;HPM_P1;HPM_P2
2021/06/01 00:01:13;;;;;;;4.72;3.30;;;15.30;99.90;;;;;;5074704;28;20063;-74
2021/06/01 00:03:39;;;;;;;8.23;3.70;;;15.30;99.90;;;;;;5074701;28;20036;-74
2021/06/01 00:06:05;;;;;;;5.30;3.25;;;15.40;99.90;;;;;;5074748;28;20106;-74
2021/06/01 00:08:31;;;;;;;4.55;3.22;;;15.50;99.90;;;;;;5074884;28;20115;-74
2021/06/01 00:10:57;;;;;;;8.10;3.50;;;15.50;99.90;;;;;;5074763;28;20486;-74
2021/06/01 00:13:23;;;;;;;6.80;3.35;;;15.50;99.90;;;;;;5075167;28;20036;-74
2021/06/01 00:15:49;;;;;;;6.47;3.30;;;15.50;99.90;;;;;;5075256;28;20379;-74
2021/06/01 00:18:14;;;;;;;3.90;3.15;;;15.60;99.90;;;;;;5074763;28;20040;-74
2021/06/01 00:20:40;;;;;;;8.00;3.47;;;15.80;99.90;;;;;;5074855;28;20064;-74
2021/06/01 00:23:06;;;;;;;5.30;3.13;;;15.80;99.90;;;;;;5074810;28;20119;-74
2021/06/01 00:25:32;;;;;;;9.98;3.70;;;15.60;99.90;;;;;;5073957;28;20032;-74
2021/06/01 00:27:58;;;;;;;5.43;2.88;;;15.70;99.90;;;;;;5057275;28;20033;-74
2021/06/01 00:30:24;;;;;;;4.50;3.08;;;15.70;99.90;;;;;;5074429;28;20139;-74
2021/06/01 00:32:49;;;;;;;4.28;3.22;;;15.70;99.90;;;;;;5074381;28;20119;-74
2021/06/01 00:35:16;;;;;;;8.13;3.00;;;15.60;99.90;;;;;;5074708;28;20047;-74
2021/06/01 00:37:42;;;;;;;3.92;3.03;;;15.50;99.90;;;;;;5076551;28;20037;-74
2021/06/01 00:40:08;;;;;;;6.38;3.00;;;15.30;99.90;;;;;;5078040;28;20040;-74
2021/06/01 00:42:34;;;;;;;4.65;3.10;;;15.20;99.90;;;;;;5078459;28;20518;-74
2021/06/01 00:45:02;;;;;;;4.93;3.22;;;15.20;99.90;;;;;;5078469;28;20044;-74
2021/06/01 00:47:28;;;;;;;4.72;3.05;;;15.10;99.90;;;;;;5060407;28;20400;-74
2021/06/01 00:49:54;;;;;;;3.97;3.60;;;15.10;99.90;;;;;;5078046;28;20503;-74
2021/06/01 00:52:20;;;;;;;5.75;3.33;;;15.00;99.90;;;;;;5078270;28;20082;-73
2021/06/01 00:54:47;;;;;;;4.60;3.40;;;15.00;99.90;;;;;;5078208;28;20040;-74
2021/06/01 00:57:12;;;;;;;3.28;2.97;;;15.00;99.90;;;;;;5077657;28;20072;-74
2021/06/01 00:59:38;;;;;;;6.50;3.40;;;15.00;99.90;;;;;;5077848;28;20523;-74
2021/06/01 01:02:05;;;;;;;5.72;3.15;;;14.90;99.90;;;;;;5078033;28;20036;-74
2021/06/01 01:04:32;;;;;;;7.32;3.75;;;15.00;99.90;;;;;;5078022;28;20036;-74
2021/06/01 01:07:18;;;;;;;4.30;2.85;;;14.90;99.90;;;;;;5077973;28;20064;-73
2021/06/01 01:09:45;;;;;;;5.90;3.22;;;14.80;99.90;;;;;;5077866;28;20491;-73
2021/06/01 01:12:21;;;;;;;4.43;3.17;;;14.80;99.90;;;;;;5059774;28;20463;-74
2021/06/01 01:14:52;;;;;;;7.72;3.33;;;14.80;99.90;;;;;;5078445;28;20124;-73
2021/06/01 01:17:24;;;;;;;4.25;3.05;;;14.60;99.90;;;;;;5077626;28;20071;-74
2021/06/01 01:20:09;;;;;;;5.10;3.38;;;14.60;99.90;;;;;;5078054;28;20051;-74
2021/06/01 01:22:42;;;;;;;5.65;3.15;;;14.60;99.90;;;;;;5077726;28;20407;-74
2021/06/01 01:25:20;;;;;;;4.13;3.40;;;14.50;99.90;;;;;;5077692;28;20567;-74
2021/06/01 01:28:22;;;;;;;5.05;3.20;;;14.50;99.90;;;;;;5077315;28;20040;-74
2021/06/01 01:30:51;;;;;;;4.78;2.83;;;14.40;99.90;;;;;;5076896;28;20078;-73
2021/06/01 01:33:21;;;;;;;5.53;3.42;;;14.40;99.90;;;;;;5077215;28;20068;-74
2021/06/01 01:35:54;;;;;;;5.18;3.10;;;14.40;99.90;;;;;;5076896;28;20402;-74
2021/06/01 01:38:22;;;;;;;5.15;3.40;;;14.40;99.90;;;;;;5077399;28;20040;-74
2021/06/01 01:40:49;;;;;;;4.53;3.25;;;14.30;99.90;;;;;;5077215;28;20040;-74
2021/06/01 01:43:19;;;;;;;5.10;3.50;;;14.30;99.90;;;;;;5077034;28;20066;-74
2021/06/01 01:45:50;;;;;;;4.68;3.25;;;14.20;99.90;;;;;;5076940;28;20124;-74
2021/06/01 01:51:11;;;;;;;5.10;3.35;;;14.30;99.90;;;;;;5076656;28;20051;-73
2021/06/01 01:53:46;;;;;;;5.68;3.50;;;14.20;99.90;;;;;;5077170;28;20044;-74
2021/06/01 01:56:13;;;;;;;5.25;3.50;;;14.20;99.90;;;;;;5077195;28;20127;-74
2021/06/01 01:58:40;;;;;;;5.35;3.35;;;14.20;99.90;;;;;;5076693;28;20052;-74
2021/06/01 02:01:06;;;;;;;4.93;3.05;;;14.10;99.90;;;;;;5076981;28;20090;-74
2021/06/01 02:03:32;;;;;;;4.95;3.47;;;14.10;99.90;;;;;;5076671;28;20491;-74
2021/06/01 02:05:59;;;;;;;8.00;3.85;;;14.00;99.90;;;;;;5077229;28;20047;-74
2021/06/01 02:08:24;;;;;;;3.75;3.03;;;13.90;99.90;;;;;;5077156;28;20502;-74
2021/06/01 02:10:52;;;;;;;4.75;3.30;;;13.70;99.90;;;;;;5076924;28;20044;-74
2021/06/01 02:13:18;;;;;;;4.57;3.30;;;13.60;99.90;;;;;;5077372;28;20037;-74
2021/06/01 02:15:44;;;;;;;4.90;3.22;;;13.60;99.90;;;;;;5077464;28;20046;-74
2021/06/01 02:18:09;;;;;;;5.80;3.22;;;13.60;99.90;;;;;;5076616;28;20052;-74
2021/06/01 02:20:35;;;;;;;4.72;3.35;;;13.60;99.90;;;;;;5077039;28;20036;-74
2021/06/01 02:26:01;;;;;;;4.28;3.25;;;13.60;99.90;;;;;;5076176;28;20035;-73
2021/06/01 02:28:48;;;;;;;5.97;3.38;;;13.40;99.90;;;;;;5076849;28;20119;-74
2021/06/01 02:31:23;;;;;;;3.45;3.13;;;13.50;99.90;;;;;;5076218;28;20094;-74
2021/06/01 02:33:50;;;;;;;6.55;3.00;;;13.50;99.90;;;;;;5076177;28;20495;-73
2021/06/01 02:36:18;;;;;;;3.60;3.05;;;13.40;99.90;;;;;;5076783;28;20040;-74
2021/06/01 02:38:44;;;;;;;5.97;3.83;;;13.30;99.90;;;;;;5076770;28;20047;-74
2021/06/01 02:41:13;;;;;;;4.13;3.05;;;13.20;99.90;;;;;;5076191;28;20492;-74
2021/06/01 02:43:39;;;;;;;6.55;3.88;;;13.20;99.90;;;;;;5076203;28;20442;-74
2021/06/01 02:46:06;;;;;;;5.13;3.38;;;13.20;99.90;;;;;;5075884;28;20454;-73
2021/06/01 02:48:32;;;;;;;5.25;3.42;;;13.20;99.90;;;;;;5076073;28;20503;-73
2021/06/01 02:51:13;;;;;;;5.20;3.45;;;13.10;99.90;;;;;;5076251;28;20044;-74
2021/06/01 02:53:45;;;;;;;5.25;3.42;;;13.00;99.90;;;;;;5076422;28;20496;-73
2021/06/01 02:56:13;;;;;;;4.55;3.53;;;13.00;99.90;;;;;;5076006;28;20036;-73
2021/06/01 02:58:43;;;;;;;3.45;3.03;;;13.00;99.90;;;;;;5076352;28;20040;-74
2021/06/01 03:01:16;;;;;;;3.70;3.25;;;13.00;99.90;;;;;;5075629;28;20037;-73
2021/06/01 03:03:53;;;;;;;4.65;3.10;;;13.00;99.90;;;;;;5076271;28;20044;-73
2021/06/01 03:06:21;;;;;;;6.10;3.45;;;12.90;99.90;;;;;;5075960;28;20534;-73
2021/06/01 03:08:47;;;;;;;4.18;3.50;;;12.90;99.90;;;;;;5075340;28;20044;-73
2021/06/01 03:11:15;;;;;;;6.75;3.20;;;12.80;99.90;;;;;;5075444;28;20028;-74
2021/06/01 03:13:43;;;;;;;4.93;3.38;;;12.80;99.90;;;;;;5075276;28;20066;-74
2021/06/01 03:16:08;;;;;;;3.78;3.47;;;12.70;99.90;;;;;;5075301;28;20037;-74
2021/06/01 03:18:34;;;;;;;4.00;3.60;;;12.70;99.90;;;;;;5075096;28;20534;-74
2021/06/01 03:21:00;;;;;;;4.47;3.33;;;12.60;99.90;;;;;;5075389;28;20044;-74
2021/06/01 03:23:26;;;;;;;6.63;3.40;;;12.70;99.90;;;;;;5075318;28;20032;-74
2021/06/01 03:25:52;;;;;;;6.53;3.40;;;12.80;99.90;;;;;;5074537;28;20127;-74
2021/06/01 03:28:19;;;;;;;5.25;3.42;;;12.80;99.90;;;;;;5075253;28;20066;-74
2021/06/01 03:30:46;;;;;;;4.93;3.60;;;12.90;99.90;;;;;;5074935;28;20127;-74
2021/06/01 03:33:13;;;;;;;4.32;3.40;;;12.80;99.90;;;;;;5075140;28;20033;-73
2021/06/01 03:35:39;;;;;;;6.72;3.83;;;12.80;99.90;;;;;;5075092;28;20093;-73
2021/06/01 03:38:04;;;;;;;4.45;3.30;;;12.90;99.90;;;;;;5075593;28;20048;-73
2021/06/01 03:40:31;;;;;;;5.18;3.80;;;12.90;99.90;;;;;;5074614;28;20052;-73
2021/06/01 03:42:57;;;;;;;4.75;3.83;;;13.10;99.90;;;;;;5075039;28;20068;-74
2021/06/01 03:45:26;;;;;;;4.20;3.03;;;13.20;99.90;;;;;;5075288;28;20048;-73
2021/06/01 03:47:52;;;;;;;6.50;2.92;;;13.40;99.90;;;;;;5074935;28;20507;-74
2021/06/01 03:50:18;;;;;;;4.47;2.97;;;13.60;99.90;;;;;;5074638;28;20131;-73
2021/06/01 03:52:45;;;;;;;4.65;3.40;;;13.70;99.90;;;;;;5074617;28;20036;-73
2021/06/01 03:55:12;;;;;;;5.28;3.40;;;13.90;99.90;;;;;;5074409;28;20041;-74
2021/06/01 03:57:38;;;;;;;6.13;3.40;;;13.90;99.90;;;;;;5074357;28;20040;-74
2021/06/01 04:00:10;;;;;;;5.30;3.08;;;13.80;99.90;;;;;;5074478;28;20039;-74
2021/06/01 04:02:37;;;;;;;3.50;3.17;;;13.90;99.90;;;;;;5074165;28;20518;-74
2021/06/01 04:05:04;;;;;;;2.55;2.35;;;14.10;99.90;;;;;;5074923;28;20048;-74
2021/06/01 04:07:30;;;;;;;5.05;3.05;;;14.20;99.90;;;;;;5075036;28;20076;-74
2021/06/01 04:09:56;;;;;;;3.10;2.80;;;14.30;99.90;;;;;;5074487;28;20392;-74
2021/06/01 04:12:22;;;;;;;5.38;2.50;;;14.30;99.90;;;;;;5056105;28;20040;-73
2021/06/01 04:14:47;;;;;;;7.88;3.28;;;14.40;99.90;;;;;;5074961;28;20036;-73
2021/06/01 04:17:13;;;;;;;3.45;2.60;;;14.50;99.90;;;;;;5074814;28;20048;-73
2021/06/01 04:19:39;;;;;;;3.47;2.90;;;14.50;99.90;;;;;;5074852;28;20483;-73
2021/06/01 04:22:05;;;;;;;3.83;2.47;;;14.60;99.90;;;;;;5074820;28;20028;-73
2021/06/01 04:24:31;;;;;;;3.75;2.97;;;14.60;99.90;;;;;;5074810;28;20075;-74
2021/06/01 04:26:59;;;;;;;3.60;2.88;;;14.60;99.90;;;;;;5074552;28;20447;-74
2021/06/01 04:29:26;;;;;;;4.55;2.65;;;14.70;99.90;;;;;;5074268;28;20123;-73
2021/06/01 04:31:52;;;;;;;6.07;2.90;;;14.60;99.90;;;;;;5073596;28;20040;-74
2021/06/01 04:34:18;;;;;;;3.28;2.08;;;14.60;99.90;;;;;;5073739;28;20070;-74
2021/06/01 04:36:44;;;;;;;4.00;2.50;;;14.60;99.90;;;;;;5073472;28;20043;-74
2021/06/01 04:39:10;;;;;;;4.32;2.60;;;14.70;99.90;;;;;;5073668;28;20052;-73
2021/06/01 04:41:36;;;;;;;3.90;2.53;;;14.80;99.90;;;;;;5074039;28;20033;-73
2021/06/01 04:44:03;;;;;;;2.97;2.63;;;14.90;99.90;;;;;;5073388;28;20423;-73
2021/06/01 04:46:28;;;;;;;8.15;4.03;;;15.00;99.90;;;;;;5074178;28;20033;-74
2021/06/01 04:48:54;;;;;;;5.65;2.60;;;15.00;99.90;;;;;;5074264;28;20131;-73
2021/06/01 04:51:20;;;;;;;3.70;2.80;;;15.10;99.90;;;;;;5074449;28;20047;-73
2021/06/01 04:53:58;;;;;;;2.80;2.47;;;15.10;99.90;;;;;;5074165;28;20040;-73
2021/06/01 04:56:25;;;;;;;6.47;4.00;;;15.10;99.90;;;;;;5073971;28;20530;-74
2021/06/01 04:58:52;;;;;;;4.93;3.00;;;15.20;99.90;;;;;;5074319;28;20086;-73
2021/06/01 05:01:18;;;;;;;5.45;3.25;;;15.30;99.90;;;;;;5074705;28;20525;-73
2021/06/01 05:03:44;;;;;;;5.03;2.60;;;15.30;99.90;;;;;;5074272;28;20131;-74
2021/06/01 05:06:10;;;;;;;4.68;2.55;;;15.20;99.90;;;;;;5074395;28;20077;-73
2021/06/01 05:08:36;;;;;;;7.75;3.70;;;15.30;99.90;;;;;;5061985;28;20037;-73
2021/06/01 05:11:03;;;;;;;5.43;2.88;;;15.20;99.90;;;;;;5053369;28;20041;-73
2021/06/01 05:13:29;;;;;;;3.92;2.90;;;15.20;99.90;;;;;;5068529;28;20036;-72
2021/06/01 05:15:55;;;;;;;4.90;3.85;;;15.40;99.90;;;;;;5071702;28;20040;-72
2021/06/01 05:18:21;;;;;;;4.55;3.03;;;15.40;99.90;;;;;;5072195;28;20071;-72
2021/06/01 05:20:48;;;;;;;4.72;2.75;;;15.40;99.90;;;;;;5071844;28;20761;-73
2021/06/01 05:23:15;;;;;;;9.25;4.10;;;15.50;99.90;;;;;;5073331;28;20051;-73
2021/06/01 05:25:41;;;;;;;5.60;3.20;;;15.50;99.90;;;;;;5074996;28;20089;-73
2021/06/01 05:28:08;;;;;;;6.47;4.03;;;15.50;99.90;;;;;;5075690;28;20104;-72
2021/06/01 05:30:47;;;;;;;5.47;3.65;;;15.50;99.90;;;;;;5075853;28;20499;-73
2021/06/01 05:33:18;;;;;;;5.57;3.03;;;15.50;99.90;;;;;;5076483;28;20526;-73
2021/06/01 05:35:53;;;;;;;9.20;4.72;;;15.60;99.90;;;;;;5076041;28;20044;-73
2021/06/01 05:38:24;;;;;;;7.88;3.55;;;15.60;99.90;;;;;;5076143;28;20045;-73
2021/06/01 05:40:50;;;;;;;5.60;3.65;;;15.50;99.90;;;;;;5075681;28;20044;-73
2021/06/01 05:43:16;;;;;;;4.10;3.60;;;15.40;99.90;;;;;;5076304;28;20028;-73
2021/06/01 05:45:42;;;;;;;9.23;4.15;;;15.40;99.90;;;;;;5076065;28;20048;-73
2021/06/01 05:48:10;;;;;;;4.43;3.08;;;15.40;99.90;;;;;;5059659;28;20044;-73
2021/06/01 05:50:36;;;;;;;10.02;5.72;;;15.40;99.90;;;;;;5076295;28;20037;-73
2021/06/01 05:53:04;;;;;;;4.63;3.42;;;15.50;99.90;;;;;;5075661;28;20106;-73
2021/06/01 05:55:30;;;;;;;5.38;3.83;;;15.60;99.90;;;;;;5075798;28;20036;-73
2021/06/01 05:57:56;;;;;;;13.48;7.20;;;15.60;99.90;;;;;;5075797;28;20048;-73
2021/06/01 06:00:23;;;;;;;13.65;8.05;;;15.70;99.90;;;;;;5075896;28;20558;-73
2021/06/01 06:02:50;;;;;;;7.35;3.80;;;15.70;99.90;;;;;;5075110;28;20032;-74
2021/06/01 06:05:16;;;;;;;5.05;3.38;;;15.70;99.90;;;;;;5057496;28;20441;-73
2021/06/01 06:07:42;;;;;;;5.10;3.78;;;15.90;99.90;;;;;;5075556;28;20043;-73
2021/06/01 06:10:09;;;;;;;6.93;3.80;;;16.00;99.90;;;;;;5075441;28;20438;-73
2021/06/01 06:12:34;;;;;;;5.40;3.30;;;16.00;99.90;;;;;;5075348;28;20060;-73
2021/06/01 06:15:02;;;;;;;7.10;3.33;;;16.00;99.90;;;;;;5074061;28;20075;-73
2021/06/01 06:17:51;;;;;;;8.55;3.30;;;16.10;99.90;;;;;;5073688;28;20055;-72
2021/06/01 06:20:17;;;;;;;4.07;3.55;;;16.10;99.90;;;;;;5073550;28;20399;-73
2021/06/01 06:22:44;;;;;;;9.73;4.18;;;16.10;99.90;;;;;;5074276;28;20326;-73
2021/06/01 06:25:11;;;;;;;5.80;3.88;;;15.90;99.90;;;;;;5072800;28;20045;-73
2021/06/01 06:27:38;;;;;;;7.60;3.80;;;15.90;99.90;;;;;;5074356;28;20033;-73
2021/06/01 06:30:07;;;;;;;5.82;3.67;;;15.90;99.90;;;;;;5075307;28;20040;-73
2021/06/01 06:32:33;;;;;;;5.80;3.35;;;15.80;99.90;;;;;;5074806;28;20039;-73
2021/06/01 06:34:59;;;;;;;7.28;3.75;;;15.90;99.90;;;;;;5073575;28;20040;-73
2021/06/01 06:37:25;;;;;;;12.82;4.55;;;16.00;99.90;;;;;;5075240;28;20136;-73
2021/06/01 06:39:51;;;;;;;5.95;3.90;;;16.00;99.90;;;;;;5075237;28;20492;-73
2021/06/01 06:42:17;;;;;;;7.45;3.60;;;15.90;99.90;;;;;;5074975;28;20036;-73
2021/06/01 06:44:50;;;;;;;7.85;3.72;;;16.00;99.90;;;;;;5075999;28;20045;-73
2021/06/01 06:49:43;;;;;;;7.35;3.70;;;16.00;99.90;;;;;;5075890;28;20038;-73
2021/06/01 06:52:11;;;;;;;4.22;3.35;;;15.90;99.90;;;;;;5075938;28;20036;-73
2021/06/01 06:54:37;;;;;;;9.30;3.85;;;16.00;99.90;;;;;;5076027;28;20083;-73
2021/06/01 06:57:04;;;;;;;9.52;6.30;;;16.10;99.90;;;;;;5075620;28;20496;-75
2021/06/01 06:59:31;;;;;;;9.50;4.88;;;16.10;99.90;;;;;;5076087;28;20045;-72
2021/06/01 07:01:57;;;;;;;6.35;4.10;;;16.20;99.90;;;;;;5075743;28;20078;-72
2021/06/01 07:04:25;;;;;;;8.50;4.20;;;16.30;99.90;;;;;;5075702;28;20041;-72
2021/06/01 07:06:52;;;;;;;6.68;3.67;;;16.30;99.90;;;;;;5075189;28;20136;-72
2021/06/01 07:09:18;;;;;;;10.77;3.90;;;16.40;99.90;;;;;;5075349;28;20095;-73
2021/06/01 07:11:44;;;;;;;4.80;3.35;;;16.50;99.90;;;;;;5075351;28;20037;-72
2021/06/01 07:14:09;;;;;;;7.93;3.83;;;16.30;99.90;;;;;;5075121;28;20043;-72
2021/06/01 07:16:36;;;;;;;5.55;3.40;;;16.40;99.90;;;;;;5075272;28;20033;-72
2021/06/01 07:19:02;;;;;;;7.80;3.42;;;16.40;99.90;;;;;;5072720;28;20063;-72
2021/06/01 07:21:28;;;;;;;6.70;3.75;;;16.30;99.90;;;;;;5072897;28;20073;-72
2021/06/01 07:23:53;;;;;;;6.93;3.70;;;16.40;99.90;;;;;;5073538;28;20041;-72
2021/06/01 07:26:19;;;;;;;5.70;3.60;;;16.40;99.90;;;;;;5073226;28;20036;-73
2021/06/01 07:28:45;;;;;;;7.82;3.92;;;16.50;99.90;;;;;;5074964;28;20385;-72
2021/06/01 07:31:14;;;;;;;7.40;3.97;;;16.50;99.90;;;;;;5075171;28;20135;-73
2021/06/01 07:33:41;;;;;;;5.50;3.50;;;16.60;99.90;;;;;;5075041;28;20068;-73
2021/06/01 07:36:08;;;;;;;6.30;3.75;;;16.60;99.90;;;;;;5074931;28;20131;-74
2021/06/01 07:38:38;;;;;;;6.13;3.75;;;16.70;99.90;;;;;;5074724;28;20048;-78
2021/06/01 07:41:06;;;;;;;4.75;3.80;;;16.80;99.90;;;;;;5074909;28;20098;-76
2021/06/01 07:43:32;;;;;;;6.82;3.88;;;16.90;99.90;;;;;;5074982;28;20036;-75
2021/06/01 07:45:58;;;;;;;7.22;4.00;;;16.90;99.90;;;;;;5070655;28;20580;-76
2021/06/01 07:48:24;;;;;;;4.88;3.42;;;17.00;99.90;;;;;;5073191;28;20044;-75
2021/06/01 07:50:51;;;;;;;4.68;3.88;;;17.00;99.90;;;;;;5074566;28;20071;-76
2021/06/01 07:53:17;;;;;;;7.95;4.22;;;17.00;99.90;;;;;;5074737;28;20051;-73
2021/06/01 07:55:43;;;;;;;4.47;3.20;;;17.20;99.90;;;;;;5074380;28;20040;-73
2021/06/01 07:58:10;;;;;;;5.85;3.60;;;17.30;99.90;;;;;;5074388;28;20106;-73
2021/06/01 08:00:36;;;;;;;6.13;3.80;;;17.20;99.90;;;;;;5074419;28;20040;-73
2021/06/01 08:03:02;;;;;;;5.75;3.40;;;17.10;99.90;;;;;;5072956;28;20036;-73
2021/06/01 08:05:28;;;;;;;7.88;3.30;;;17.00;99.90;;;;;;5074047;28;20491;-73
2021/06/01 08:07:54;;;;;;;5.00;3.30;;;17.00;99.90;;;;;;5074905;28;20052;-73
2021/06/01 08:10:21;;;;;;;6.45;3.60;;;17.30;99.90;;;;;;5074449;28;20036;-74
2021/06/01 08:12:49;;;;;;;4.15;2.85;;;17.30;99.90;;;;;;5074608;28;20072;-73
2021/06/01 08:15:18;;;;;;;8.93;3.35;;;17.50;99.90;;;;;;5074656;28;20044;-73
2021/06/01 08:17:45;;;;;;;5.22;3.25;;;17.40;99.90;;;;;;5074723;28;20040;-73
2021/06/01 08:20:16;;;;;;;8.20;3.55;;;17.30;99.90;;;;;;5074749;28;20123;-73
2021/06/01 08:22:45;;;;;;;4.82;3.38;;;17.30;99.90;;;;;;5075377;28;20090;-73
2021/06/01 08:25:11;;;;;;;7.60;3.35;;;17.60;99.90;;;;;;5074632;28;20093;-74
2021/06/01 08:27:37;;;;;;;5.82;3.45;;;17.60;99.90;;;;;;5074512;28;20038;-74
2021/06/01 08:30:06;;;;;;;8.98;3.40;;;17.60;99.90;;;;;;5074698;28;20040;-73
2021/06/01 08:32:32;;;;;;;5.15;3.35;;;17.40;99.90;;;;;;5074723;28;20040;-74
2021/06/01 08:34:57;;;;;;;5.90;3.75;;;17.30;99.90;;;;;;5074807;28;20484;-74
2021/06/01 08:37:23;;;;;;;6.10;3.20;;;17.40;99.90;;;;;;5074321;28;20051;-73
2021/06/01 08:39:49;;;;;;;4.05;3.10;;;17.30;99.90;;;;;;5074575;28;20040;-74
2021/06/01 08:42:16;;;;;;;5.18;3.83;;;17.30;99.90;;;;;;5074605;28;20059;-73
2021/06/01 08:44:41;;;;;;;7.35;3.42;;;17.30;99.90;;;;;;5074370;28;20044;-74
2021/06/01 08:47:10;;;;;;;4.55;3.20;;;17.30;99.90;;;;;;5074587;28;20042;-73
2021/06/01 08:49:37;;;;;;;7.53;3.67;;;17.30;99.90;;;;;;5074436;28;20117;-73
2021/06/01 08:52:03;;;;;;;5.93;3.50;;;17.30;99.90;;;;;;5074153;28;20392;-73
2021/06/01 08:54:31;;;;;;;5.38;3.45;;;17.10;99.90;;;;;;5074509;28;20037;-74
2021/06/01 08:56:57;;;;;;;4.82;3.95;;;17.10;99.90;;;;;;5074031;28;20487;-74
2021/06/01 08:59:22;;;;;;;5.25;3.70;;;17.10;99.90;;;;;;5077450;28;20048;-73
2021/06/01 09:01:48;;;;;;;8.32;3.75;;;17.00;99.90;;;;;;5078039;28;20028;-73
2021/06/01 09:04:15;;;;;;;7.13;3.75;;;17.10;99.90;;;;;;5078396;28;20043;-73
2021/06/01 09:06:47;;;;;;;6.80;4.10;;;17.20;99.90;;;;;;5078188;28;20106;-74
2021/06/01 09:12:08;;;;;;;4.22;3.83;;;17.30;99.90;;;;;;5077658;28;20469;-73
2021/06/01 09:23:00;;;;;;;8.85;3.75;;;17.30;99.90;;;;;;5077450;28;20035;-73
2021/06/01 09:27:59;;;;;;;6.47;4.00;;;17.20;99.90;;;;;;5077726;28;20067;-74
2021/06/01 09:30:59;;;;;;;9.20;3.65;;;17.20;99.90;;;;;;5077311;28;20037;-74
2021/06/01 09:33:27;;;;;;;8.45;4.25;;;17.30;99.90;;;;;;5074718;28;20094;-73
2021/06/01 09:36:04;;;;;;;8.65;4.30;;;17.40;99.90;;;;;;5076866;28;20491;-74
2021/06/01 09:38:36;;;;;;;5.97;4.00;;;17.50;99.90;;;;;;5078010;28;20052;-73
2021/06/01 09:41:11;;;;;;;5.35;3.88;;;17.50;99.90;;;;;;5077647;28;20119;-74
2021/06/01 09:43:56;;;;;;;7.40;4.20;;;17.50;99.90;;;;;;5077317;28;20105;-74
2021/06/01 09:46:38;;;;;;;5.68;3.80;;;17.70;99.90;;;;;;5076705;28;20102;-74
2021/06/01 09:49:13;;;;;;;8.77;3.90;;;17.80;99.90;;;;;;5077603;28;20098;-74
2021/06/01 09:51:41;;;;;;;5.40;3.72;;;17.90;99.90;;;;;;5077115;28;20127;-74
2021/06/01 09:54:32;;;;;;;5.65;3.83;;;18.10;99.90;;;;;;5077089;28;20038;-74
2021/06/01 09:57:14;;;;;;;5.28;3.97;;;18.50;99.40;;;;;;5077032;28;20037;-74
2021/06/01 09:59:40;;;;;;;5.03;3.58;;;18.80;98.50;;;;;;5076482;28;20054;-74
2021/06/01 10:02:33;;;;;;;8.85;3.13;;;19.10;97.10;;;;;;5077091;28;20040;-74
2021/06/01 10:05:19;;;;;;;5.82;3.30;;;20.00;94.70;;;;;;5076427;28;20098;-74
2021/06/01 10:07:47;;;;;;;6.13;3.33;;;20.30;91.30;;;;;;5076903;28;20037;-73
2021/06/01 10:10:17;;;;;;;3.88;3.10;;;19.90;92.50;;;;;;5075248;28;20119;-74
2021/06/01 10:12:54;;;;;;;5.00;3.38;;;19.80;93.10;;;;;;5077428;28;20063;-74
2021/06/01 10:15:23;;;;;;;5.18;3.38;;;20.20;92.50;;;;;;5076802;28;20036;-74
2021/06/01 10:17:50;;;;;;;4.80;2.88;;;20.20;90.50;;;;;;5076937;28;20472;-74
2021/06/01 10:20:17;;;;;;;6.55;3.13;;;20.40;90.60;;;;;;5076669;28;20040;-74
2021/06/01 10:22:44;;;;;;;6.80;2.97;;;20.10;91.70;;;;;;5059102;28;20040;-74
2021/06/01 10:25:11;;;;;;;5.28;2.60;;;20.40;90.80;;;;;;5077024;28;20048;-74
2021/06/01 10:27:37;;;;;;;4.88;2.95;;;21.30;85.00;;;;;;5076478;28;20128;-74
2021/06/01 10:30:06;;;;;;;5.90;2.80;;;21.80;81.00;;;;;;5076920;28;20072;-74
2021/06/01 10:32:36;;;;;;;3.72;2.40;;;21.50;78.50;;;;;;5076900;28;20503;-74
2021/06/01 10:35:07;;;;;;;6.60;2.97;;;21.40;80.20;;;;;;5076466;28;20523;-74
2021/06/01 10:51:57;;;;;;;4.18;2.67;;;21.10;80.20;;;;;;5076144;28;20032;-74
2021/06/01 10:54:43;;;;;;;5.18;3.10;;;21.10;78.60;;;;;;5076196;28;20127;-74
2021/06/01 10:57:11;;;;;;;6.85;2.70;;;20.30;81.60;;;;;;5075742;28;20072;-74
2021/06/01 11:02:27;;;;;;;10.35;3.45;;;19.70;86.70;;;;;;5075943;28;20115;-74
2021/06/01 11:05:17;;;;;;;3.65;2.83;;;19.90;89.10;;;;;;5076109;28;20098;-74
2021/06/01 11:07:52;;;;;;;8.13;3.13;;;19.50;89.90;;;;;;5075475;28;20037;-74
2021/06/01 11:10:37;;;;;;;4.45;2.95;;;19.50;90.60;;;;;;5075173;28;20032;-74
2021/06/01 11:13:05;;;;;;;5.30;2.90;;;19.90;90.20;;;;;;5075578;28;20056;-74
2021/06/01 11:15:33;;;;;;;3.85;2.88;;;19.90;86.40;;;;;;5075283;28;20036;-74
2021/06/01 11:18:27;;;;;;;6.90;2.90;;;20.30;86.20;;;;;;5075220;28;20040;-74
2021/06/01 11:21:09;;;;;;;6.30;2.97;;;20.50;83.20;;;;;;5075022;28;20046;-74
2021/06/01 11:35:27;;;;;;;3.47;2.38;;;21.10;73.40;;;;;;5074717;28;20040;-74
2021/06/01 11:38:08;;;;;;;5.50;2.30;;;21.40;72.30;;;;;;5075090;28;20510;-74
2021/06/01 11:43:14;;;;;;;3.67;2.55;;;21.60;71.30;;;;;;5075086;28;20035;-74
2021/06/01 11:45:55;;;;;;;4.85;2.47;;;21.80;67.40;;;;;;5075682;28;20037;-74
2021/06/01 11:51:24;;;;;;;4.18;2.30;;;22.10;66.70;;;;;;5075350;28;20503;-74
2021/06/01 11:53:57;;;;;;;6.72;2.53;;;22.30;65.90;;;;;;5049759;28;20028;-74
2021/06/01 11:56:45;;;;;;;4.03;2.55;;;22.10;63.60;;;;;;5074396;28;20044;-74
2021/06/01 12:02:18;;;;;;;5.28;2.40;;;22.50;66.90;;;;;;5074374;28;20040;-74
2021/06/01 12:18:25;;;;;;;5.53;2.53;;;22.90;61.60;;;;;;5074542;28;20518;-74
2021/06/01 12:20:52;;;;;;;8.80;2.63;;;23.60;58.20;;;;;;5074194;28;20094;-74
2021/06/01 12:23:44;;;;;;;6.22;2.53;;;23.20;60.10;;;;;;5074141;28;20040;-74
2021/06/01 12:26:25;;;;;;;6.40;2.38;;;22.80;60.10;;;;;;5074517;28;20496;-74
2021/06/01 12:32:18;;;;;;;4.75;2.20;;;22.50;62.30;;;;;;5073708;28;20454;-74
2021/06/01 12:41:39;;;;;;;4.28;2.08;;;22.80;60.40;;;;;;5074376;28;20036;-74
2021/06/01 13:20:00;;;;;;;5.28;1.90;;;22.00;60.70;;;;;;5073774;28;20035;-74
2021/06/01 13:39:38;;;;;;;4.47;2.00;;;20.90;68.70;;;;;;5073800;28;20050;-74
2021/06/01 13:51:29;;;;;;;3.90;2.10;;;20.70;70.70;;;;;;5045840;28;20044;-74
2021/06/01 13:56:11;;;;;;;6.20;2.45;;;20.00;87.90;;;;;;5077152;28;20039;-74
2021/06/01 14:01:25;;;;;;;4.18;2.35;;;19.80;90.40;;;;;;5077369;28;19919;-74
2021/06/01 14:09:53;;;;;;;6.00;2.38;;;21.10;75.70;;;;;;5076668;28;20146;-74
2021/06/01 14:15:28;;;;;;;4.43;2.25;;;21.30;72.70;;;;;;5076622;28;20561;-74
2021/06/01 15:28:45;;;;;;;5.43;2.20;;;19.90;82.30;;;;;;5075439;28;20067;-74
2021/06/01 15:50:30;;;;;;;8.65;3.65;;;19.20;90.10;;;;;;5075258;28;20113;-74
2021/06/01 16:21:36;;;;;;;5.13;2.50;;;19.40;88.90;;;;;;5043178;28;20044;-74
2021/06/01 17:04:51;;;;;;;5.45;1.98;;;19.10;85.50;;;;;;5074086;28;20087;-74
2021/06/01 17:13:08;;;;;;;4.78;2.28;;;19.50;84.40;;;;;;5074160;28;20040;-74
2021/06/01 17:15:36;;;;;;;3.30;1.70;;;19.30;85.30;;;;;;5074504;28;20040;-74
2021/06/01 17:31:46;;;;;;;4.85;2.10;;;18.30;88.40;;;;;;5077646;28;20078;-74
2021/06/01 17:37:02;;;;;;;3.15;2.17;;;18.10;88.80;;;;;;5077384;28;20150;-74
2021/06/01 17:39:28;;;;;;;4.75;2.88;;;18.10;89.50;;;;;;5077714;28;20036;-74
2021/06/01 17:41:56;;;;;;;3.83;2.78;;;18.10;88.90;;;;;;5077630;28;20055;-74
2021/06/01 17:44:24;;;;;;;5.47;2.10;;;18.00;90.50;;;;;;5077604;28;20040;-74
2021/06/01 17:46:51;;;;;;;3.72;2.10;;;17.90;90.30;;;;;;5059577;28;20040;-74
2021/06/01 17:49:26;;;;;;;3.70;2.53;;;17.80;91.90;;;;;;5077512;28;20032;-74
2021/06/01 17:51:52;;;;;;;4.65;2.50;;;17.70;92.20;;;;;;5077447;28;20044;-74
2021/06/01 17:54:35;;;;;;;6.28;2.30;;;17.60;91.80;;;;;;5078002;28;20032;-74
2021/06/01 17:57:03;;;;;;;5.95;2.63;;;17.60;92.70;;;;;;5077122;28;20488;-74
2021/06/01 17:59:29;;;;;;;6.40;3.45;;;17.60;92.70;;;;;;5077011;28;20098;-74
2021/06/01 18:01:56;;;;;;;4.22;2.05;;;17.60;92.10;;;;;;5077507;28;20072;-73
2021/06/01 18:04:25;;;;;;;5.95;2.38;;;17.50;91.70;;;;;;5059421;28;20091;-75
2021/06/01 18:07:02;;;;;;;7.15;3.20;;;17.40;92.30;;;;;;5077032;28;20055;-74
2021/06/01 18:35:31;;;;;;;9.98;4.13;;;17.30;94.30;;;;;;5055702;28;20549;-74
2021/06/01 19:24:27;;;;;;;7.88;3.65;;;15.60;99.90;;;;;;5054967;28;20076;-74
2021/06/01 19:51:47;;;;;;;12.88;5.10;;;14.70;99.90;;;;;;5053613;28;20036;-73
2021/06/01 19:54:22;;;;;;;20.30;4.93;;;14.60;99.90;;;;;;5054413;28;20048;-73
2021/06/01 19:56:49;;;;;;;11.60;5.50;;;14.60;99.90;;;;;;5054162;28;20041;-73
2021/06/01 19:59:18;;;;;;;5.85;3.65;;;14.60;99.90;;;;;;5053587;28;20072;-74
2021/06/01 20:01:44;;;;;;;8.52;5.68;;;14.50;99.90;;;;;;5053858;28;20068;-74
2021/06/01 20:04:11;;;;;;;11.38;5.90;;;14.50;99.90;;;;;;5053847;28;20128;-74
2021/06/01 20:06:40;;;;;;;10.98;4.07;;;14.40;99.90;;;;;;5055163;28;20051;-74
2021/06/01 20:09:07;;;;;;;9.05;4.22;;;14.30;99.90;;;;;;5054657;28;20034;-75
2021/06/01 20:11:36;;;;;;;9.77;4.45;;;14.10;99.90;;;;;;5054986;28;20072;-74
2021/06/01 20:14:03;;;;;;;11.73;4.93;;;14.10;99.90;;;;;;5055171;28;20037;-74